.
WxDataArchive / Data Records for 2011-08-26
2011-08-25 August 2011 2011-08-27

Data Records for Friday, 26 August 2011

Time	Temp	Chill	HIndex	Humid	Dewpt	 Wind 	HiWind	WindDir	Rain 	Barom 
-----	----	-----	------	-----	-----	------	------	-------	-----	----- 
00:00	66.8	66.8	66.8	81	60.8	0	0	---	0.00	29.997 
00:05	66.6	66.6	66.6	81	60.6	0	0	---	0.00	29.997 
00:10	66.4	66.4	66.4	81	60.4	0	0	---	0.00	29.997 
00:15	66.1	66.1	66.1	82	60.4	0	0	---	0.00	29.999 
00:20	66.0	66.0	66.0	82	60.3	0	0	---	0.00	29.999 
00:25	65.8	65.8	65.8	83	60.5	0	0	---	0.00	29.999 
00:30	65.6	65.6	65.6	83	60.3	0	0	---	0.00	30.010 
00:35	65.3	65.3	65.3	83	60.0	0	0	---	0.00	30.010 
00:40	65.2	65.2	65.2	84	60.2	0	0	---	0.00	30.010 
00:45	64.8	64.8	64.8	84	59.8	0	0	---	0.00	30.007 
00:50	64.7	64.7	64.7	85	60.1	0	0	---	0.00	30.007 
00:55	64.5	64.5	64.5	86	60.2	0	0	---	0.00	30.007 
01:00	64.3	64.3	64.3	86	60.0	0	0	---	0.00	30.008 
01:05	64.2	64.2	64.2	86	59.9	0	0	---	0.00	30.008 
01:10	64.0	64.0	64.0	87	60.0	0	0	---	0.00	30.008 
01:15	63.9	63.9	63.9	87	59.9	0	0	---	0.00	30.013 
01:20	63.7	63.7	63.7	88	60.1	0	0	---	0.00	30.013 
01:25	63.5	63.5	63.5	88	59.9	0	0	---	0.00	30.013 
01:30	63.4	63.4	63.4	88	59.8	0	0	---	0.00	30.014 
01:35	63.2	63.2	63.2	89	59.9	0	0	---	0.00	30.014 
01:40	63.2	63.2	63.2	89	59.9	0	0	---	0.00	30.014 
01:45	63.1	63.1	63.1	89	59.8	0	0	---	0.00	30.016 
01:50	62.9	62.9	62.9	89	59.6	0	0	---	0.00	30.016 
01:55	62.7	62.7	62.7	89	59.4	0	0	---	0.00	30.016 
02:00	62.6	62.6	62.6	90	59.6	0	0	---	0.00	30.017 
02:05	62.6	62.6	62.6	90	59.6	0	0	---	0.00	30.017 
02:10	62.4	62.4	62.4	90	59.4	0	0	---	0.00	30.017 
02:15	62.4	62.4	62.4	90	59.4	0	0	---	0.00	30.014 
02:20	62.4	62.4	62.4	91	59.7	0	0	---	0.00	30.014 
02:25	62.3	62.3	62.3	91	59.6	0	0	---	0.00	30.014 
02:30	62.3	62.3	62.3	91	59.6	0	0	---	0.00	30.006 
02:35	62.1	62.1	62.1	91	59.4	0	0	---	0.00	30.006 
02:40	62.1	62.1	62.1	92	59.7	0	0	---	0.00	30.006 
02:45	62.1	62.1	62.1	92	59.7	0	0	---	0.00	30.005 
02:50	62.1	62.1	62.1	92	59.7	0	0	---	0.00	30.005 
02:55	62.1	62.1	62.1	92	59.7	0	0	---	0.00	30.005 
03:00	62.1	62.1	62.1	92	59.7	0	0	---	0.00	30.002 
03:05	62.1	62.1	62.1	92	59.7	0	0	---	0.00	30.002 
03:10	62.4	62.4	62.4	93	60.3	0	1	270	0.00	30.002 
03:15	62.6	62.6	62.6	93	60.5	0	1	270	0.00	30.002 
03:20	62.6	62.6	62.6	93	60.5	0	1	270	0.00	30.002 
03:25	62.7	62.7	62.7	93	60.6	0	1	270	0.00	30.002 
03:30	62.7	62.7	62.7	93	60.6	0	1	270	0.00	30.001 
03:35	62.7	62.7	62.7	93	60.6	0	1	270	0.00	30.001 
03:40	62.7	62.7	62.7	93	60.6	0	0	---	0.00	30.001 
03:45	62.7	62.7	62.7	93	60.6	0	2	270	0.00	30.001 
03:50	62.6	62.6	62.6	93	60.5	0	0	---	0.00	30.001 
03:55	62.6	62.6	62.6	93	60.5	0	2	270	0.00	30.001 
04:00	62.6	62.6	62.6	93	60.5	0	0	---	0.00	30.007 
04:05	62.4	62.4	62.4	93	60.3	0	0	---	0.00	30.007 
04:10	62.4	62.4	62.4	93	60.3	0	0	---	0.00	30.007 
04:15	62.3	62.3	62.3	93	60.2	0	0	---	0.00	30.013 
04:20	62.1	62.1	62.1	93	60.0	0	1	270	0.00	30.013 
04:25	62.1	62.1	62.1	93	60.0	0	0	---	0.00	30.013 
04:30	62.1	62.1	62.1	93	60.0	0	0	---	0.00	30.014 
04:35	62.0	62.0	62.0	93	59.9	0	0	---	0.00	30.014 
04:40	62.0	62.0	62.0	93	59.9	0	0	---	0.00	30.014 
04:45	61.8	61.8	61.8	93	59.8	0	0	---	0.00	30.015 
04:50	61.6	61.6	61.6	93	59.6	0	0	---	0.00	30.015 
04:55	61.6	61.6	61.6	93	59.6	0	0	---	0.00	30.015 
05:00	61.5	61.5	61.5	93	59.5	0	0	---	0.00	30.012 
05:05	61.5	61.5	61.5	93	59.5	0	0	---	0.00	30.012 
05:10	61.5	61.5	61.5	93	59.5	0	1	270	0.00	30.012 
05:15	61.5	61.5	61.5	93	59.5	0	0	---	0.00	30.009 
05:20	61.3	61.3	61.3	93	59.3	0	0	---	0.00	30.009 
05:25	61.3	61.3	61.3	94	59.6	0	0	---	0.00	30.009 
05:30	61.3	61.3	61.3	94	59.6	0	0	---	0.00	30.007 
05:35	61.2	61.2	61.2	94	59.5	0	0	---	0.00	30.007 
05:40	61.2	61.2	61.2	94	59.5	0	0	---	0.00	30.007 
05:45	61.2	61.2	61.2	94	59.5	0	0	---	0.00	30.008 
05:50	61.0	61.0	61.0	94	59.3	0	0	---	0.00	30.008 
05:55	61.0	61.0	61.0	94	59.3	0	0	---	0.00	30.008 
06:00	61.0	61.0	61.0	94	59.3	0	0	---	0.00	30.006 
06:05	60.9	60.9	60.9	94	59.2	0	0	---	0.00	30.006 
06:10	60.9	60.9	60.9	94	59.2	0	0	---	0.00	30.006 
06:15	60.7	60.7	60.7	94	59.0	0	0	---	0.00	30.010 
06:20	60.7	60.7	60.7	94	59.0	0	0	---	0.00	30.010 
06:25	60.7	60.7	60.7	94	59.0	0	0	---	0.00	30.010 
06:30	60.7	60.7	60.7	94	59.0	0	2	270	0.00	30.007 
06:35	60.7	60.7	60.7	94	59.0	0	1	270	0.00	30.007 
06:40	60.5	60.5	60.5	94	58.8	0	1	270	0.00	30.007 
06:45	60.5	60.5	60.5	94	58.8	0	1	270	0.00	30.011 
06:50	60.4	60.4	60.4	94	58.7	0	0	---	0.00	30.011 
06:55	60.4	60.4	60.4	94	58.7	0	1	270	0.00	30.011 
07:00	60.4	60.4	60.4	94	58.7	0	2	270	0.00	30.010 
07:05	60.2	60.2	60.2	94	58.5	0	0	---	0.00	30.010 
07:10	60.2	60.2	60.2	94	58.5	0	0	---	0.00	30.010 
07:15	60.1	60.1	60.1	94	58.4	0	0	---	0.00	30.019 
07:20	60.1	60.1	60.1	94	58.4	0	0	---	0.00	30.019 
07:25	60.1	60.1	60.1	94	58.4	0	0	---	0.00	30.019 
07:30	60.2	60.2	60.2	94	58.5	0	2	270	0.00	30.015 
07:35	60.4	60.4	60.4	94	58.7	0	3	270	0.00	30.015 
07:40	60.7	60.7	60.7	94	59.0	0	2	270	0.00	30.015 
07:45	60.9	60.9	60.9	94	59.2	0	1	270	0.00	30.019 
07:50	61.0	61.0	61.0	93	59.0	0	2	270	0.00	30.019 
07:55	61.3	61.3	61.3	93	59.3	0	1	270	0.00	30.019 
08:00	61.6	61.6	61.6	93	59.6	0	1	270	0.00	30.022 
08:05	62.1	62.1	62.1	93	60.0	1	4	270	0.00	30.022 
08:10	62.6	62.6	62.6	91	59.9	1	4	112	0.00	30.022 
08:15	62.9	62.9	62.9	90	59.9	1	3	112	0.00	30.028 
08:20	63.4	63.4	63.4	89	60.1	0	3	112	0.00	30.028 
08:25	64.0	64.0	64.0	88	60.4	0	2	112	0.00	30.028 
08:30	64.5	64.5	64.5	87	60.5	0	3	112	0.00	30.029 
08:35	65.0	65.0	65.0	87	61.0	0	2	112	0.00	30.029 
08:40	65.3	65.3	65.3	85	60.7	0	1	112	0.00	30.029 
08:45	65.6	65.6	65.6	85	61.0	1	4	112	0.00	30.033 
08:50	65.5	65.5	65.5	85	60.9	1	4	112	0.00	30.033 
08:55	65.8	65.8	65.8	85	61.2	1	3	112	0.00	30.033 
09:00	66.0	66.0	66.0	85	61.4	1	3	112	0.00	30.036 
09:05	66.1	66.1	66.1	86	61.8	1	3	112	0.00	30.036 
09:10	66.3	66.3	66.3	85	61.6	1	3	112	0.00	30.036 
09:15	66.4	66.4	66.4	86	62.1	0	3	112	0.00	30.040 
09:20	66.6	66.6	66.6	85	61.9	0	2	112	0.00	30.040 
09:25	66.8	66.8	66.8	85	62.1	0	3	90	0.00	30.040 
09:30	67.1	67.1	67.1	84	62.1	0	1	90	0.00	30.044 
09:35	67.4	67.4	67.4	83	62.0	0	3	90	0.00	30.044 
09:40	67.6	67.6	67.6	83	62.2	1	4	90	0.00	30.044 
09:45	67.6	67.6	67.6	84	62.6	2	4	90	0.00	30.036 
09:50	67.9	67.9	67.9	84	62.9	1	5	90	0.00	30.036 
09:55	68.4	68.4	68.4	83	63.0	2	4	90	0.00	30.036 
10:00	68.8	68.8	68.8	83	63.4	1	5	90	0.00	30.035 
10:05	69.1	69.1	69.1	82	63.4	1	3	90	0.00	30.035 
10:10	69.4	69.4	69.4	81	63.3	1	3	90	0.00	30.035 
10:15	69.9	69.9	69.9	80	63.4	1	3	90	0.00	30.045 
10:20	70.4	70.4	70.4	80	63.9	1	4	90	0.00	30.045 
10:25	71.1	71.1	71.1	79	64.2	1	3	90	0.00	30.045 
10:30	71.6	71.6	71.6	79	64.7	1	6	90	0.00	30.048 
10:35	72.0	72.0	72.0	78	64.8	1	3	90	0.00	30.048 
10:40	72.5	72.5	72.5	76	64.5	1	4	90	0.00	30.048 
10:45	72.8	72.8	72.8	74	64.0	2	4	90	0.00	30.045 
10:50	73.2	73.2	73.2	75	64.8	2	5	90	0.00	30.045 
10:55	73.3	73.3	73.3	74	64.5	2	4	90	0.00	30.045 
11:00	73.7	73.7	73.7	74	64.9	1	4	90	0.00	30.045 
11:05	74.2	74.2	74.2	73	65.0	1	4	90	0.00	30.045 
11:10	74.9	74.9	74.9	70	64.4	1	4	112	0.00	30.045 
11:15	74.9	74.9	74.9	71	64.8	3	4	90	0.00	30.045 
11:20	75.1	75.1	76.7	71	65.0	2	5	90	0.00	30.045 
11:25	75.4	75.4	77.1	70	64.9	2	5	90	0.00	30.045 
11:30	75.4	75.4	77.1	70	64.9	2	4	90	0.00	30.043 
11:35	75.8	75.8	77.5	69	64.9	2	3	112	0.00	30.043 
11:40	76.0	76.0	77.7	68	64.7	1	3	112	0.00	30.043 
11:45	76.1	76.1	77.8	68	64.8	2	4	90	0.00	30.047 
11:50	76.3	76.3	78.0	68	64.9	2	5	90	0.00	30.047 
11:55	76.5	76.5	78.2	69	65.6	2	9	68	0.00	30.047 
12:00	76.8	76.8	78.6	65	64.1	2	5	112	0.00	30.036 
12:05	76.3	76.3	78.1	67	64.5	2	5	90	0.00	30.036 
12:10	75.6	75.6	77.3	69	64.7	1	4	90	0.00	30.036 
12:15	75.6	75.6	77.3	69	64.7	0	3	90	0.00	30.037 
12:20	76.0	76.0	77.8	66	63.8	1	3	112	0.00	30.037 
12:25	76.3	76.3	78.1	66	64.1	1	4	90	0.00	30.037 
12:30	76.0	76.0	77.8	67	64.2	1	2	90	0.00	30.035 
12:35	75.8	75.8	77.6	67	64.0	1	4	112	0.00	30.035 
12:40	75.4	75.4	77.3	67	63.7	1	4	90	0.00	30.035 
12:45	75.4	75.4	77.2	68	64.1	1	4	112	0.00	30.032 
12:50	75.4	75.4	77.1	69	64.5	2	4	112	0.00	30.032 
12:55	75.4	75.4	77.1	69	64.5	1	3	112	0.00	30.032 
13:00	75.3	75.3	77.1	68	64.0	1	3	112	0.00	30.027 
13:05	75.3	75.3	77.1	68	64.0	1	3	112	0.00	30.027 
13:10	75.3	75.3	77.3	65	62.7	0	2	112	0.00	30.027 
13:15	75.3	75.3	77.4	64	62.3	0	3	112	0.00	30.028 
13:20	75.3	75.3	77.4	64	62.3	0	1	292	0.00	30.028 
13:25	76.0	76.0	78.0	61	61.6	1	3	292	0.00	30.028 
13:30	76.8	76.8	78.6	61	62.3	1	3	45	0.00	30.018 
13:35	77.4	77.4	79.1	60	62.4	1	2	45	0.00	30.018 
13:40	78.1	78.1	79.7	59	62.6	1	3	68	0.00	30.018 
13:45	78.6	78.6	80.1	58	62.6	1	3	68	0.00	30.009 
13:50	79.0	79.0	80.6	59	63.4	1	4	68	0.00	30.009 
13:55	79.8	79.8	81.3	57	63.2	1	4	68	0.00	30.009 
14:00	79.8	79.8	81.2	56	62.7	1	3	68	0.00	30.003 
14:05	79.0	79.0	80.5	57	62.4	1	4	68	0.00	30.003 
14:10	78.8	78.8	80.2	56	61.8	0	1	68	0.00	30.003 
14:15	78.8	78.8	80.3	57	62.3	0	1	68	0.00	30.002 
14:20	79.2	79.2	80.4	54	61.1	1	5	68	0.00	30.002 
14:25	79.4	79.4	80.5	52	60.2	1	3	90	0.00	30.002 
14:30	79.9	79.9	81.1	54	61.7	0	2	90	0.00	29.999 
14:35	80.5	80.5	81.6	53	61.8	1	5	68	0.00	29.999 
14:40	80.9	80.9	81.6	50	60.5	1	3	68	0.00	29.999 
14:45	81.1	81.1	81.8	50	60.7	1	5	68	0.00	29.996 
14:50	80.7	80.7	81.6	51	60.9	1	3	90	0.00	29.996 
14:55	79.8	79.8	80.7	51	60.0	0	2	90	0.00	29.996 
15:00	79.9	79.9	81.1	54	61.7	0	2	90	0.00	29.985 
15:05	80.5	80.5	81.7	54	62.3	0	2	90	0.00	29.985 
15:10	81.2	81.2	81.9	50	60.8	0	2	90	0.00	29.985 
15:15	81.6	81.6	82.3	50	61.1	1	4	112	0.00	29.980 
15:20	81.4	81.4	82.0	49	60.4	2	5	90	0.00	29.980 
15:25	81.1	81.1	82.0	51	61.2	2	5	90	0.00	29.980 
15:30	81.2	81.2	82.2	52	61.9	0	3	90	0.00	29.972 
15:35	81.2	81.2	82.2	52	61.9	2	5	90	0.00	29.972 
15:40	81.1	81.1	82.1	52	61.8	2	7	90	0.00	29.972 
15:45	80.9	80.9	81.8	51	61.0	3	9	90	0.00	29.968 
15:50	80.1	80.1	81.2	53	61.4	1	4	90	0.00	29.968 
15:55	79.6	79.6	80.6	52	60.4	0	1	90	0.00	29.968 
16:00	79.4	79.4	80.5	53	60.8	1	2	90	0.00	29.967 
16:05	79.8	79.8	80.9	53	61.1	1	5	90	0.00	29.967 
16:10	80.1	80.1	81.1	52	60.9	2	5	90	0.00	29.967 
16:15	80.5	80.5	81.5	52	61.2	1	4	90	0.00	29.964 
16:20	80.9	80.9	81.6	50	60.5	0	2	90	0.00	29.964 
16:25	80.9	80.9	81.6	50	60.5	2	4	90	0.00	29.964 
16:30	80.5	80.5	81.3	50	60.1	1	4	90	0.00	29.961 
16:35	80.5	80.5	81.4	51	60.7	1	3	90	0.00	29.961 
16:40	80.7	80.7	81.4	50	60.3	1	5	90	0.00	29.961 
16:45	80.9	80.9	81.6	50	60.5	1	3	68	0.00	29.959 
16:50	81.1	81.1	81.8	50	60.7	0	2	68	0.00	29.959 
16:55	81.2	81.2	81.9	50	60.8	0	2	68	0.00	29.959 
17:00	81.4	81.4	82.0	49	60.4	1	4	68	0.00	29.951 
17:05	81.4	81.4	81.9	48	59.8	1	4	90	0.00	29.951 
17:10	81.2	81.2	81.8	49	60.2	1	3	90	0.00	29.951 
17:15	81.2	81.2	81.8	49	60.2	0	2	90	0.00	29.952 
17:20	81.2	81.2	81.9	50	60.8	2	5	90	0.00	29.952 
17:25	80.9	80.9	81.6	50	60.5	2	3	90	0.00	29.952 
17:30	80.5	80.5	81.4	51	60.7	1	3	90	0.00	29.945 
17:35	80.5	80.5	81.3	50	60.1	1	3	90	0.00	29.945 
17:40	80.7	80.7	81.6	51	60.9	0	2	90	0.00	29.945 
17:45	80.7	80.7	81.6	51	60.9	0	2	90	0.00	29.940 
17:50	80.7	80.7	81.4	50	60.3	0	2	90	0.00	29.940 
17:55	80.7	80.7	81.4	50	60.3	1	2	292	0.00	29.940 
18:00	80.5	80.5	81.3	50	60.1	1	3	338	0.00	29.940 
18:05	80.3	80.3	81.3	52	61.0	1	4	0	0.00	29.940 
18:10	79.9	79.9	80.8	51	60.1	2	5	68	0.00	29.940 
18:15	79.8	79.8	80.6	50	59.5	0	2	68	0.00	29.939 
18:20	79.8	79.8	80.7	51	60.0	0	1	68	0.00	29.939 
18:25	79.8	79.8	80.7	51	60.0	0	2	68	0.00	29.939 
18:30	79.8	79.8	80.7	51	60.0	1	3	68	0.00	29.935 
18:35	79.6	79.6	80.6	52	60.4	0	2	135	0.00	29.935 
18:40	79.6	79.6	80.7	53	60.9	1	4	135	0.00	29.935 
18:45	79.2	79.2	80.3	52	60.0	2	5	112	0.00	29.932 
18:50	79.0	79.0	80.2	53	60.4	2	4	68	0.00	29.932 
18:55	78.8	78.8	80.0	53	60.2	1	3	68	0.00	29.932 
19:00	78.6	78.6	79.8	53	60.0	1	3	68	0.00	29.933 
19:05	78.6	78.6	79.8	53	60.0	1	2	68	0.00	29.933 
19:10	78.5	78.5	79.7	52	59.4	1	3	68	0.00	29.933 
19:15	78.3	78.3	79.6	53	59.7	0	1	68	0.00	29.928 
19:20	78.1	78.1	79.5	54	60.1	0	1	68	0.00	29.928 
19:25	78.1	78.1	79.5	54	60.1	0	0	---	0.00	29.928 
19:30	77.9	77.9	79.3	54	59.9	0	2	68	0.00	29.931 
19:35	77.7	77.7	79.2	55	60.2	0	1	68	0.00	29.931 
19:40	77.6	77.6	79.2	56	60.6	0	1	68	0.00	29.931 
19:45	77.2	77.2	78.9	57	60.8	0	1	68	0.00	29.924 
19:50	77.0	77.0	78.7	57	60.6	0	1	68	0.00	29.924 
19:55	76.7	76.7	78.5	58	60.8	0	0	---	0.00	29.924 
20:00	76.3	76.3	78.2	58	60.4	0	2	68	0.00	29.915 
20:05	76.1	76.1	78.1	58	60.2	0	1	68	0.00	29.915 
20:10	76.0	76.0	78.0	59	60.6	0	0	---	0.00	29.915 
20:15	75.6	75.6	77.8	59	60.2	0	1	68	0.00	29.911 
20:20	75.4	75.4	77.6	60	60.5	0	0	---	0.00	29.911 
20:25	75.1	75.1	77.4	60	60.2	0	0	---	0.00	29.911 
20:30	74.7	74.7	74.7	61	60.3	0	0	---	0.00	29.921 
20:35	74.4	74.4	74.4	62	60.5	0	0	---	0.00	29.921 
20:40	74.0	74.0	74.0	63	60.6	0	0	---	0.00	29.921 
20:45	73.7	73.7	73.7	65	61.2	0	0	---	0.00	29.919 
20:50	73.3	73.3	73.3	65	60.8	0	0	---	0.00	29.919 
20:55	73.0	73.0	73.0	66	61.0	0	0	---	0.00	29.919 
21:00	72.8	72.8	72.8	67	61.2	0	0	---	0.00	29.924 
21:05	72.5	72.5	72.5	68	61.3	0	0	---	0.00	29.924 
21:10	72.1	72.1	72.1	68	60.9	0	0	---	0.00	29.924 
21:15	72.0	72.0	72.0	69	61.3	0	0	---	0.00	29.926 
21:20	71.6	71.6	71.6	70	61.3	0	0	---	0.00	29.926 
21:25	71.3	71.3	71.3	70	61.0	0	0	---	0.00	29.926 
21:30	71.1	71.1	71.1	71	61.2	0	0	---	0.00	29.927 
21:35	70.9	70.9	70.9	72	61.4	0	0	---	0.00	29.927 
21:40	70.6	70.6	70.6	72	61.1	0	0	---	0.00	29.927 
21:45	70.4	70.4	70.4	73	61.3	0	0	---	0.00	29.929 
21:50	70.3	70.3	70.3	74	61.6	0	0	---	0.00	29.929 
21:55	70.1	70.1	70.1	75	61.8	0	0	---	0.00	29.929 
22:00	69.9	69.9	69.9	76	62.0	0	0	---	0.00	29.937 
22:05	69.8	69.8	69.8	76	61.9	0	0	---	0.00	29.937 
22:10	69.4	69.4	69.4	77	61.9	0	0	---	0.00	29.937 
22:15	69.3	69.3	69.3	77	61.8	0	0	---	0.00	29.937 
22:20	69.1	69.1	69.1	78	61.9	0	0	---	0.00	29.937 
22:25	68.8	68.8	68.8	79	62.0	0	0	---	0.00	29.937 
22:30	68.6	68.6	68.6	79	61.8	0	0	---	0.00	29.937 
22:35	68.4	68.4	68.4	80	62.0	0	0	---	0.00	29.937 
22:40	68.3	68.3	68.3	81	62.2	0	0	---	0.00	29.937 
22:45	68.1	68.1	68.1	81	62.0	0	0	---	0.00	29.938 
22:50	67.9	67.9	67.9	81	61.8	0	0	---	0.00	29.938 
22:55	67.8	67.8	67.8	82	62.1	0	0	---	0.00	29.938 
23:00	67.6	67.6	67.6	83	62.2	0	0	---	0.00	29.937 
23:05	67.3	67.3	67.3	83	62.0	0	0	---	0.00	29.937 
23:10	67.1	67.1	67.1	83	61.8	0	0	---	0.00	29.937 
23:15	66.9	66.9	66.9	84	61.9	0	0	---	0.00	29.934 
23:20	66.8	66.8	66.8	84	61.8	0	0	---	0.00	29.934 
23:25	66.6	66.6	66.6	84	61.6	0	0	---	0.00	29.934 
23:30	66.4	66.4	66.4	85	61.7	0	0	---	0.00	29.934 
23:35	66.4	66.4	66.4	85	61.7	0	1	68	0.00	29.934 
23:40	66.1	66.1	66.1	86	61.8	0	0	---	0.00	29.934 
23:45	66.0	66.0	66.0	86	61.7	0	0	---	0.00	29.934 
23:50	65.8	65.8	65.8	87	61.8	0	0	---	0.00	29.934 
23:55	65.6	65.6	65.6	87	61.6	0	0	---	0.00	29.934 

CoCoRaHS
IN-AL-39
A2 Web Hosting
Creative Commons License
GoDaddy
search engine by freefind advanced

loaded 2018-11-20 06:26:46 • last modified 2010-11-18 10:43:29
Privacy PolicyDisclaimer
• wx.awcolley.com is powered by PmWiki v.2002016 •
• all content (unless otherwise noted) © 2018 A W Colley